Howe Sound: Past 24 Hour Conditions

 

Victoria Gonzales

09:00 AM PDT 29 August 2014
This table is a summary of hourly weather conditions for the past 24 hours.
Date / Time
(PDT)
Wind(knots) Conditions Visibility(km) Pressure(kPa) Air tempC) Relative humidity(%) Dew pointC)
29 August 2014
9:00 WSW 7 N/A N/A 101.5 13 81 10
8:00 WSW 8 N/A N/A 101.5 13 80 10
7:00 SSW 7 N/A N/A 101.4 12 86 10
6:00 SW 11 N/A N/A 101.4 12 95 11
5:00 SW 12 N/A N/A 101.5 12 95 11
4:00 SW 12 gust 17 N/A N/A 101.5 12 94 11
3:00 SW 12 N/A N/A 101.5 11 95 11
2:00 WSW 14 gust 20 N/A N/A 101.5 12 93 11
1:00 WSW 15 gust 20 N/A N/A 101.5 12 93 11
0:00 WSW 14 N/A N/A 101.6 13 92 11
28 August 2014
23:00 SW 11 N/A N/A 101.6 12 90 11
22:00 SW 10 gust 15 N/A N/A 101.6 14 74 9
21:00 WSW 10 gust 15 N/A N/A 101.7 16 74 11
20:00 WSW 10 N/A N/A 101.7 17 76 13
19:00 WSW 11 N/A N/A 101.7 17 76 13
18:00 SW 22 gust 27 N/A N/A 101.7 16 83 13
17:00 SW 22 N/A N/A 101.7 15 84 13
16:00 SW 23 N/A N/A 101.7 15 84 13
15:00 SSW 17 N/A N/A 101.8 16 79 13
14:00 SSW 16 gust 21 N/A N/A 101.8 18 74 13
13:00 SSW 15 N/A N/A 101.9 17 77 13
12:00 SSW 11 N/A N/A 101.9 16 82 13
11:00 SSW 10 N/A N/A 101.9 16 82 12
10:00 SW 10 N/A N/A 101.8 17 77 13
9:00 SW 9 N/A N/A 101.8 17 74 13
 
Map of Pacific - South Coast marine weather areas Tsawwassen Ferry Terminal South Nomad - 46036 Sentry Shoal - 46131 South Brooks - 46132 Halibut Bank - 46146 South Moresby - 46147 South Hecate Strait - 46185 West Sea Otter - 46204 La Perouse Bank - 46206 East Dellwood - 46207 Discovery Island Esquimalt Harbour Kelp Reefs Malahat Race Rocks Lightstation Saturna Island Sheringham Point University of Victoria Victoria Gonzales Victoria Int'l Airport Ballenas Islands Campbell River Airport Comox Airport Entrance Island Fanny Island Nanaimo Airport Port Hardy Airport Sisters Islets Estevan Point Sartine Island Solander Island Tofino Airport Grief Point Powell River Airport Sechelt Cape St.James Bella Bella Airport Bella Coola Airport Cathedral Point Herbert Island Point Atkinson Sand Heads Lightstation Vancouver Harbour Vancouver Int'l Airport West Vancouver Port Alberni Howe Sound - Pam Rocks Squamish Airport